KSNY/SNY METAR and TAF weather

Enter ICAO airport designator
Station Type Date Time Source
KSNY METAR 2020/11/28 18:53 UTC NOAA

KSNY 281853Z AUTO 31008KT 10SM CLR 13/M08 A3003 RMK AO2 SLP183 T01281083


Station Type Date Time Source
KSNY Decoded METAR 2020/11/28 18:53 UTC NOAA

SIDNEY MUNICIPAL AIRPORT, NE, United States (KSNY) 41-06N 102-59W 1307M
Nov 28, 2020 - 01:53 PM EST / 2020.11.28 1853 UTC
Wind: from the NW (310 degrees) at 9 MPH (8 KT):0
Visibility: 10 mile(s):0
Sky conditions: clear
Temperature: 55.0 F (12.8 C)
Dew Point: 17.1 F (-8.3 C)
Relative Humidity: 22%
Pressure (altimeter): 30.03 in. Hg (1016 hPa)
ob: KSNY 281853Z AUTO 31008KT 10SM CLR 13/M08 A3003 RMK AO2 SLP183 T01281083
cycle: 19

Station Type Date Time Source
KSNY TAF 2020/11/28 18:24 UTC NOAA

TAF KSNY 281720Z 2818/2918 30011KT P6SM SKC
FM290000 28008KT P6SM SKC
FM290600 34018G28KT P6SM SCT100

Example: see airport list